Briarwood Beach, Ohio
Current Conditions -  °F | °C
As of 10:56 AM on Friday 28 Nov 2014 (Local Time) from KBJJ Reporting Station
Overcast Overcast  
Wind Chill: 22°   Ceiling: 3400
Heat Index: 22°   Visibility: 10mi
Dew Point: 15°   Wind: 0mph
Humidity: 75%   Direction: NA
Pressure: 30.34"   Gusts: NA
Location:  41.0673°N, 81.9012°W
Report Text: KBJJ 281556Z AUTO 00000KT 10SM BKN034 OVC110 M06/M09 A3034 RMK AO2 SLP291 T10561094 TSNO
Loading
Personal Weather Stations






























Interactive Weather Map New forecast layout! Learn more

10-Day Weather Forecast

Advertisements
Track Severe Weather on mobile